Main page
METAR-TAF:

METAR-TAF

Airports :

Kullu–Manali Airport

Kullu / Manali, India

latitude: 31-52-36N, longitude: 77-09-16E, elevation: 1089 m

METAR: missing

Time: 07:20 (01:50 UTC)

Forecast

The report was made 2 hours and 50 minutes ago, at 23:00 UTC
Forecast valid from 20 at 00 UTC to 20 at 09 UTC
Wind kt from the North
Visibility: 1500 m
Few clouds at a height of 4000 ft
Scattered clouds at a height of 10000 ft
mist
Becoming
from 20 at 04 UTC to 20 at 06 UTC
Wind 2 kt from variable directions
Visibility: 3000 m
haze

TAF: VIBR 192300Z 2000/2009 00000KT 1500 BR FEW040 SCT100 BECMG 2004/2006 VRB02KT 3000 HZ

Weather observations and forecasts of more than 4000 airports (METAR and TAF reports).

The available stations are represented by yellow and red dots on the map.

Hover mouse over dot to see the name of the station.

Then click to see weather observations and forecasts.

To change the map : click on the green buttons with a black cross to zoom in, on the green button with a dash to zoom out, or on the green arrows for adjacent maps.


METAR-TAF: